createdAt,value
2019-04-20T00:01:28.006Z,4.15
2019-04-20T00:03:55.305Z,3.97
2019-04-20T00:06:27.107Z,4.33
2019-04-20T00:09:04.687Z,3.80
2019-04-20T00:11:41.727Z,6.77
2019-04-20T00:14:08.510Z,4.27
2019-04-20T00:16:33.774Z,4.07
2019-04-20T00:19:05.907Z,4.07
2019-04-20T00:21:42.771Z,3.93
2019-04-20T00:24:18.043Z,4.23
2019-04-20T00:27:08.492Z,4.60
2019-04-20T00:29:35.545Z,3.77
2019-04-20T00:31:59.184Z,4.73
2019-04-20T00:34:26.755Z,4.07
2019-04-20T00:36:52.422Z,4.70
2019-04-20T00:39:23.785Z,4.27
2019-04-20T00:42:00.432Z,4.17
2019-04-20T00:44:31.639Z,4.20
2019-04-20T00:47:08.624Z,4.87
2019-04-20T00:49:44.565Z,4.80
2019-04-20T00:52:31.159Z,4.53
2019-04-20T00:54:34.900Z,4.07
2019-04-20T00:57:13.443Z,4.37
2019-04-20T00:59:59.275Z,4.07
2019-04-20T01:02:20.922Z,5.43
2019-04-20T01:05:02.454Z,4.30
2019-04-20T01:07:27.419Z,4.25
2019-04-20T01:10:07.013Z,3.80
2019-04-20T01:12:40.250Z,5.17
2019-04-20T01:15:16.680Z,4.87
2019-04-20T01:17:43.109Z,5.40
2019-04-20T01:20:18.007Z,5.07
2019-04-20T01:22:56.056Z,4.13
2019-04-20T01:25:28.408Z,4.63
2019-04-20T01:28:10.244Z,4.30
2019-04-20T01:30:33.954Z,4.67
2019-04-20T01:33:12.678Z,4.33
2019-04-20T01:35:49.137Z,4.30
2019-04-20T01:38:20.893Z,4.10
2019-04-20T01:40:36.097Z,4.50
2019-04-20T01:43:07.894Z,4.77
2019-04-20T01:45:41.970Z,4.77
2019-04-20T01:48:15.105Z,4.53
2019-04-20T01:51:01.896Z,5.97
2019-04-20T01:53:50.402Z,4.23
2019-04-20T01:56:24.773Z,4.35
2019-04-20T01:58:58.212Z,4.28
2019-04-20T02:01:25.123Z,4.37
2019-04-20T02:04:06.394Z,4.93
2019-04-20T02:06:43.546Z,5.17
2019-04-20T02:09:13.484Z,4.87
2019-04-20T02:11:44.691Z,4.97
2019-04-20T02:14:14.303Z,4.53
2019-04-20T02:16:47.998Z,5.03
2019-04-20T02:19:30.450Z,4.43
2019-04-20T02:22:03.585Z,5.00
2019-04-20T02:24:21.670Z,5.17
2019-04-20T02:26:52.099Z,4.90
2019-04-20T02:29:48.850Z,5.80
2019-04-20T02:32:23.917Z,4.53
2019-04-20T02:35:07.184Z,4.87
2019-04-20T02:37:58.480Z,6.50
2019-04-20T02:40:20.663Z,7.40
2019-04-20T02:42:53.603Z,5.57
2019-04-20T02:45:28.260Z,6.27
2019-04-20T02:47:51.280Z,5.50
2019-04-20T02:55:33.957Z,5.08
2019-04-20T02:58:05.314Z,7.40
2019-04-20T03:00:44.442Z,7.27
2019-04-20T03:02:55.322Z,5.07
2019-04-20T03:05:28.317Z,5.93
2019-04-20T03:08:04.665Z,5.00
2019-04-20T03:10:47.313Z,6.58
2019-04-20T03:13:15.425Z,5.07
2019-04-20T03:15:43.359Z,5.17
2019-04-20T03:18:17.934Z,6.37
2019-04-20T03:20:46.518Z,5.80
2019-04-20T03:23:36.094Z,4.77
2019-04-20T03:26:13.858Z,5.20
2019-04-20T03:28:51.549Z,7.47
2019-04-20T03:34:23.226Z,4.67
2019-04-20T03:36:44.706Z,6.77
2019-04-20T03:39:07.018Z,5.97
2019-04-20T03:41:26.388Z,7.13
2019-04-20T03:43:49.840Z,6.80
2019-04-20T03:46:31.951Z,5.77
2019-04-20T03:49:10.657Z,5.40
2019-04-20T03:51:47.121Z,5.27
2019-04-20T03:54:19.973Z,5.53
2019-04-20T03:56:54.444Z,5.20
2019-04-20T03:59:34.668Z,6.07
2019-04-20T04:05:04.378Z,5.60
2019-04-20T04:07:29.582Z,5.30
2019-04-20T04:10:08.180Z,5.97
2019-04-20T04:13:09.809Z,5.43
2019-04-20T04:15:48.355Z,5.93
2019-04-20T04:18:24.180Z,6.43
2019-04-20T04:20:56.820Z,6.80
2019-04-20T04:23:38.232Z,6.70
2019-04-20T04:26:08.591Z,10.13
2019-04-20T04:28:42.124Z,7.07
2019-04-20T04:31:24.669Z,7.50
2019-04-20T04:33:55.819Z,7.72
2019-04-20T04:36:17.848Z,6.43
2019-04-20T04:41:27.080Z,8.13
2019-04-20T04:43:53.983Z,6.83
2019-04-20T04:46:10.740Z,7.92
2019-04-20T04:48:44.625Z,5.47
2019-04-20T04:51:20.706Z,6.03
2019-04-20T04:53:55.174Z,6.63
2019-04-20T04:56:20.052Z,7.73
2019-04-20T04:58:49.559Z,6.07
2019-04-20T05:01:25.115Z,6.10
2019-04-20T05:04:17.200Z,6.33
2019-04-20T05:06:37.806Z,6.33
2019-04-20T05:09:00.843Z,6.97
2019-04-20T05:11:30.022Z,6.27
2019-04-20T05:14:06.744Z,7.13
2019-04-20T05:16:50.088Z,6.53
2019-04-20T05:19:23.511Z,6.37
2019-04-20T05:22:08.243Z,7.13
2019-04-20T05:24:33.745Z,10.90
2019-04-20T05:27:30.229Z,6.63
2019-04-20T05:29:44.375Z,5.53
2019-04-20T05:32:23.585Z,5.40
2019-04-20T05:35:10.947Z,6.53
2019-04-20T05:37:41.271Z,7.30
2019-04-20T05:40:16.198Z,5.63
2019-04-20T05:42:48.498Z,7.70
2019-04-20T05:45:21.818Z,7.17
2019-04-20T05:47:53.649Z,6.83
2019-04-20T05:50:29.058Z,6.13
2019-04-20T05:53:02.805Z,5.10
2019-04-20T05:55:37.433Z,5.40
2019-04-20T05:58:11.247Z,5.43
2019-04-20T06:00:49.891Z,6.07
2019-04-20T06:03:11.003Z,5.23
2019-04-20T06:05:52.297Z,5.10
2019-04-20T06:08:27.731Z,5.33
2019-04-20T06:10:52.170Z,5.73
2019-04-20T06:13:22.946Z,6.40
2019-04-20T06:16:07.394Z,7.10
2019-04-20T06:18:45.931Z,6.87
2019-04-20T06:21:31.330Z,5.13
2019-04-20T06:24:24.925Z,5.53
2019-04-20T06:29:08.304Z,5.95
2019-04-20T06:31:41.705Z,6.70
2019-04-20T06:37:06.864Z,6.45
2019-04-20T06:42:14.071Z,5.12
2019-04-20T06:44:39.704Z,5.40
2019-04-20T06:47:24.469Z,5.23
2019-04-20T06:49:56.516Z,5.53
2019-04-20T06:52:24.351Z,4.10
2019-04-20T06:57:43.463Z,3.70
2019-04-20T07:02:48.159Z,4.00
2019-04-20T07:05:20.767Z,4.03
2019-04-20T07:08:04.273Z,3.83
2019-04-20T07:10:34.453Z,3.37
2019-04-20T07:12:55.210Z,3.50
2019-04-20T07:15:29.157Z,3.13
2019-04-20T07:18:13.835Z,3.27
2019-04-20T07:20:55.509Z,3.13
2019-04-20T07:25:54.263Z,3.00
2019-04-20T07:28:31.313Z,3.02
2019-04-20T07:31:09.330Z,2.33
2019-04-20T07:33:44.598Z,2.13
2019-04-20T07:36:19.528Z,2.23
2019-04-20T07:38:52.159Z,1.73
2019-04-20T07:41:26.220Z,2.07
2019-04-20T07:44:01.170Z,1.80
2019-04-20T07:46:34.888Z,1.63
2019-04-20T07:48:54.077Z,1.80
2019-04-20T07:51:14.188Z,2.20
2019-04-20T07:53:59.482Z,1.30
2019-04-20T07:56:30.556Z,1.30
2019-04-20T07:58:50.885Z,1.30
2019-04-20T08:01:54.747Z,6.30
2019-04-20T08:04:23.669Z,2.17
2019-04-20T08:06:48.774Z,3.70
2019-04-20T08:09:21.824Z,4.33
2019-04-20T08:12:14.280Z,3.27
2019-04-20T08:14:52.174Z,3.00
2019-04-20T08:17:31.008Z,4.33
2019-04-20T08:19:42.391Z,3.97
2019-04-20T08:22:24.734Z,3.63
2019-04-20T08:24:45.354Z,2.80
2019-04-20T08:27:04.587Z,2.53
2019-04-20T08:29:49.698Z,2.92
2019-04-20T08:32:37.731Z,2.40
2019-04-20T08:35:15.495Z,2.25
2019-04-20T08:37:47.001Z,6.67
2019-04-20T08:40:19.460Z,3.08
2019-04-20T08:42:56.990Z,2.63
2019-04-20T08:45:24.153Z,2.53
2019-04-20T08:47:57.025Z,2.47
2019-04-20T08:50:22.374Z,2.53
2019-04-20T08:53:09.995Z,2.20
2019-04-20T08:55:29.499Z,2.00
2019-04-20T08:57:42.460Z,1.92
2019-04-20T09:00:29.740Z,2.03
2019-04-20T09:03:02.342Z,2.67
2019-04-20T09:05:39.927Z,2.90
2019-04-20T09:08:08.350Z,2.40
2019-04-20T09:10:53.998Z,2.30
2019-04-20T09:13:23.112Z,1.97
2019-04-20T09:15:47.476Z,2.33
2019-04-20T09:18:26.288Z,2.30
2019-04-20T09:20:59.293Z,2.37
2019-04-20T09:23:38.143Z,2.73
2019-04-20T09:26:15.040Z,2.40
2019-04-20T09:28:56.748Z,2.33
2019-04-20T09:31:35.874Z,2.40
2019-04-20T09:34:13.054Z,2.43
2019-04-20T09:36:46.169Z,1.87
2019-04-20T09:39:30.391Z,1.90
2019-04-20T09:42:01.534Z,2.47
2019-04-20T09:44:35.410Z,2.20
2019-04-20T09:47:03.359Z,1.87
2019-04-20T09:49:46.062Z,2.03
2019-04-20T09:52:16.980Z,2.17
2019-04-20T09:54:58.025Z,1.98
2019-04-20T10:00:10.360Z,3.13
2019-04-20T10:02:25.922Z,3.20
2019-04-20T10:04:53.469Z,2.80
2019-04-20T10:07:26.184Z,2.90
2019-04-20T10:09:55.890Z,4.60
2019-04-20T10:12:26.130Z,3.30
2019-04-20T10:14:57.538Z,3.10
2019-04-20T10:17:31.316Z,3.20
2019-04-20T10:20:02.542Z,3.40
2019-04-20T10:22:32.859Z,3.10
2019-04-20T10:25:04.599Z,3.33
2019-04-20T10:27:34.909Z,6.77
2019-04-20T10:30:06.353Z,4.03
2019-04-20T10:32:40.303Z,4.85
2019-04-20T10:35:11.812Z,4.33
2019-04-20T10:37:42.271Z,3.83
2019-04-20T10:40:13.445Z,3.50
2019-04-20T10:42:44.032Z,3.05
2019-04-20T10:45:14.994Z,3.87
2019-04-20T10:47:45.389Z,3.00
2019-04-20T10:50:16.863Z,3.13
2019-04-20T10:52:47.736Z,4.53
2019-04-20T10:55:18.701Z,3.67
2019-04-20T10:57:49.390Z,3.90
2019-04-20T11:00:25.609Z,3.40
2019-04-20T11:02:55.999Z,3.20
2019-04-20T11:05:26.533Z,3.27
2019-04-20T11:07:59.755Z,3.03
2019-04-20T11:10:46.162Z,2.80
2019-04-20T11:13:03.207Z,2.60
2019-04-20T11:15:34.573Z,3.17
2019-04-20T11:18:05.252Z,4.97
2019-04-20T11:20:35.651Z,2.70
2019-04-20T11:23:06.588Z,2.83
2019-04-20T11:25:37.967Z,3.43
2019-04-20T11:28:10.204Z,3.07
2019-04-20T11:30:40.485Z,3.05
2019-04-20T11:33:11.697Z,2.77
2019-04-20T11:35:44.570Z,2.83
2019-04-20T11:38:16.995Z,2.73
2019-04-20T11:40:48.164Z,3.45
2019-04-20T11:43:17.966Z,3.10
2019-04-20T11:45:48.907Z,2.67
2019-04-20T11:48:19.296Z,2.43
2019-04-20T11:50:49.608Z,2.33
2019-04-20T11:53:19.902Z,4.60
2019-04-20T11:55:50.120Z,3.40
2019-04-20T11:58:21.711Z,3.17
2019-04-20T12:01:04.125Z,2.90
2019-04-20T12:03:37.858Z,2.57
2019-04-20T12:06:04.676Z,2.63
2019-04-20T12:08:36.032Z,3.15
2019-04-20T12:11:21.632Z,2.40
2019-04-20T12:13:38.590Z,5.17
2019-04-20T12:16:09.876Z,3.80
2019-04-20T12:18:40.246Z,4.13
2019-04-20T12:21:10.710Z,3.37
2019-04-20T12:23:42.241Z,3.77
2019-04-20T12:26:13.073Z,3.20
2019-04-20T12:28:43.463Z,3.63
2019-04-20T12:31:20.314Z,4.97
2019-04-20T12:33:46.470Z,7.83
2019-04-20T12:36:16.840Z,4.50
2019-04-20T12:38:48.745Z,3.00
2019-04-20T12:41:33.163Z,3.47
2019-04-20T12:43:51.944Z,2.50
2019-04-20T12:46:23.457Z,2.93
2019-04-20T12:48:55.660Z,2.50
2019-04-20T12:51:33.925Z,7.00
2019-04-20T12:53:58.863Z,4.40
2019-04-20T12:56:30.582Z,3.47
2019-04-20T12:59:00.873Z,2.30
2019-04-20T13:01:31.098Z,2.93
2019-04-20T13:04:03.903Z,4.70
2019-04-20T13:06:34.133Z,6.90
2019-04-20T13:09:10.785Z,5.33
2019-04-20T13:12:04.635Z,5.12
2019-04-20T13:15:10.676Z,3.60
2019-04-20T13:17:42.218Z,4.53
2019-04-20T13:20:13.883Z,3.97
2019-04-20T13:22:44.420Z,3.03
2019-04-20T13:25:15.013Z,6.17
2019-04-20T13:27:45.300Z,3.67
2019-04-20T13:30:16.940Z,3.07
2019-04-20T13:32:47.838Z,3.20
2019-04-20T13:35:18.420Z,2.93
2019-04-20T13:37:49.859Z,2.93
2019-04-20T13:40:21.800Z,4.00
2019-04-20T13:42:53.897Z,3.33
2019-04-20T13:45:24.682Z,3.30
2019-04-20T13:47:55.148Z,3.47
2019-04-20T13:50:26.264Z,5.00
2019-04-20T13:52:56.605Z,3.20
2019-04-20T13:55:27.332Z,6.00
2019-04-20T13:58:13.902Z,3.27
2019-04-20T14:00:58.976Z,2.72
2019-04-20T14:03:31.282Z,3.07
2019-04-20T14:06:02.720Z,2.37
2019-04-20T14:08:35.566Z,3.25
2019-04-20T14:11:07.327Z,3.33
2019-04-20T14:13:43.710Z,2.98
2019-04-20T14:16:09.695Z,2.00
2019-04-20T14:18:41.018Z,1.90
2019-04-20T14:21:12.248Z,2.10
2019-04-20T14:23:43.249Z,2.05
2019-04-20T14:26:14.689Z,2.10
2019-04-20T14:28:45.150Z,4.60
2019-04-20T14:31:16.116Z,5.27
2019-04-20T14:33:46.733Z,4.00
2019-04-20T14:36:17.093Z,3.40
2019-04-20T14:38:48.668Z,3.00
2019-04-20T14:41:20.150Z,3.30
2019-04-20T14:43:51.219Z,3.37
2019-04-20T14:46:22.911Z,6.67
2019-04-20T14:48:54.877Z,4.70
2019-04-20T14:51:25.779Z,4.60
2019-04-20T14:53:56.126Z,3.03
2019-04-20T14:56:27.391Z,2.53
2019-04-20T14:59:02.358Z,2.30
2019-04-20T15:01:34.715Z,2.10
2019-04-20T15:04:11.482Z,2.53
2019-04-20T15:06:39.724Z,2.22
2019-04-20T15:09:10.830Z,2.73
2019-04-20T15:11:42.951Z,3.30
2019-04-20T15:14:14.441Z,3.30
2019-04-20T15:16:44.802Z,3.23
2019-04-20T15:19:17.842Z,2.73
2019-04-20T15:21:53.471Z,2.58
2019-04-20T15:24:23.853Z,2.60
2019-04-20T15:26:54.289Z,4.43
2019-04-20T15:29:24.616Z,3.27
2019-04-20T15:31:54.895Z,2.37
2019-04-20T15:34:26.790Z,1.77
2019-04-20T15:36:58.191Z,1.87
2019-04-20T15:39:29.211Z,1.40
2019-04-20T15:42:01.237Z,2.33
2019-04-20T15:44:33.440Z,3.20
2019-04-20T15:47:03.809Z,1.87
2019-04-20T15:49:35.760Z,1.90
2019-04-20T15:52:06.219Z,2.33
2019-04-20T15:54:37.772Z,2.10
2019-04-20T15:57:14.572Z,2.13
2019-04-20T15:59:40.268Z,2.00
2019-04-20T16:02:13.463Z,1.67
2019-04-20T16:04:48.798Z,1.80
2019-04-20T16:07:21.457Z,3.90
2019-04-20T16:09:51.784Z,3.90
2019-04-20T16:12:22.891Z,4.13
2019-04-20T16:14:53.567Z,2.23
2019-04-20T16:17:32.789Z,1.97
2019-04-20T16:20:06.004Z,1.90
2019-04-20T16:22:30.937Z,1.60
2019-04-20T16:25:05.815Z,1.80
2019-04-20T16:27:38.040Z,1.60
2019-04-20T16:30:09.672Z,1.40
2019-04-20T16:32:40.699Z,1.60
2019-04-20T16:35:11.470Z,1.70
2019-04-20T16:37:42.438Z,1.30
2019-04-20T16:40:13.766Z,1.50
2019-04-20T16:42:45.465Z,1.37
2019-04-20T16:45:17.187Z,1.27
2019-04-20T16:47:48.207Z,1.45
2019-04-20T16:50:19.285Z,1.27
2019-04-20T16:52:50.810Z,1.10
2019-04-20T16:55:21.341Z,1.40
2019-04-20T16:57:52.911Z,1.63
2019-04-20T17:00:23.604Z,1.50
2019-04-20T17:02:54.335Z,1.23
2019-04-20T17:05:25.580Z,1.50
2019-04-20T17:08:00.840Z,1.20
2019-04-20T17:10:31.178Z,1.60
2019-04-20T17:13:01.932Z,1.60
2019-04-20T17:15:33.868Z,1.45
2019-04-20T17:18:05.577Z,1.33
2019-04-20T17:20:36.805Z,1.30
2019-04-20T17:23:10.248Z,1.17
2019-04-20T17:25:39.891Z,1.30
2019-04-20T17:28:24.818Z,1.40
2019-04-20T17:31:00.663Z,1.30
2019-04-20T17:33:47.168Z,1.40
2019-04-20T17:36:16.721Z,1.20
2019-04-20T17:38:44.580Z,1.30
2019-04-20T17:41:34.441Z,1.50
2019-04-20T17:44:05.477Z,1.47
2019-04-20T17:46:27.273Z,1.40
2019-04-20T17:49:05.533Z,1.30
2019-04-20T17:51:39.972Z,1.13
2019-04-20T17:53:58.545Z,1.33
2019-04-20T17:56:26.469Z,1.23
2019-04-20T17:58:56.814Z,1.63
2019-04-20T18:01:41.238Z,1.40
2019-04-20T18:04:34.076Z,1.50
2019-04-20T18:06:50.455Z,1.17
2019-04-20T18:09:34.830Z,1.60
2019-04-20T18:11:48.501Z,1.60
2019-04-20T18:14:31.435Z,1.50
2019-04-20T18:17:13.841Z,1.60
2019-04-20T18:19:36.741Z,1.93
2019-04-20T18:22:09.863Z,1.90
2019-04-20T18:25:02.569Z,2.27
2019-04-20T18:27:32.037Z,2.40
2019-04-20T18:30:01.422Z,1.70
2019-04-20T18:32:33.578Z,1.90
2019-04-20T18:35:08.396Z,2.37
2019-04-20T18:37:39.711Z,2.05
2019-04-20T18:40:14.311Z,1.90
2019-04-20T18:42:45.295Z,2.30
2019-04-20T18:45:29.651Z,1.80
2019-04-20T18:48:07.550Z,2.33
2019-04-20T18:50:27.621Z,2.15
2019-04-20T18:52:53.849Z,2.23
2019-04-20T18:55:34.190Z,2.40
2019-04-20T18:57:57.296Z,2.43
2019-04-20T19:00:33.639Z,2.43
2019-04-20T19:03:09.620Z,3.00
2019-04-20T19:05:31.924Z,2.67
2019-04-20T19:08:11.380Z,2.80
2019-04-20T19:10:41.749Z,2.27
2019-04-20T19:13:22.435Z,2.70
2019-04-20T19:16:00.237Z,2.73
2019-04-20T19:18:47.754Z,2.80
2019-04-20T19:21:01.793Z,2.58
2019-04-20T19:23:35.185Z,2.63
2019-04-20T19:26:09.573Z,2.93
2019-04-20T19:28:44.495Z,2.47
2019-04-20T19:31:25.300Z,2.67
2019-04-20T19:34:00.840Z,2.55
2019-04-20T19:36:25.581Z,3.10
2019-04-20T19:39:01.799Z,3.20
2019-04-20T19:41:29.849Z,2.50
2019-04-20T19:44:05.280Z,3.00
2019-04-20T19:49:04.128Z,3.00
2019-04-20T19:51:49.358Z,3.20
2019-04-20T19:54:17.999Z,3.27
2019-04-20T19:56:46.568Z,3.13
2019-04-20T19:59:13.406Z,3.30
2019-04-20T20:01:33.799Z,3.00
2019-04-20T20:04:07.606Z,4.83
2019-04-20T20:06:43.680Z,4.95
2019-04-20T20:09:12.630Z,4.60
2019-04-20T20:11:44.435Z,3.80
2019-04-20T20:14:16.939Z,3.98
2019-04-20T20:17:04.122Z,4.13
2019-04-20T20:19:32.695Z,3.63
2019-04-20T20:22:02.304Z,3.22
2019-04-20T20:24:21.415Z,2.90
2019-04-20T20:26:58.462Z,3.13
2019-04-20T20:29:32.702Z,2.53
2019-04-20T20:32:11.693Z,3.60
2019-04-20T20:34:36.370Z,3.27
2019-04-20T20:37:04.222Z,2.83
2019-04-20T20:39:35.122Z,3.03
2019-04-20T20:42:21.958Z,3.30
2019-04-20T20:44:45.003Z,2.53
2019-04-20T20:47:31.484Z,2.53
2019-04-20T20:50:08.762Z,2.00
2019-04-20T20:52:30.178Z,2.57
2019-04-20T20:54:56.306Z,2.40
2019-04-20T20:57:23.937Z,2.07
2019-04-20T20:59:55.301Z,2.70
2019-04-20T21:02:33.894Z,2.27
2019-04-20T21:04:53.555Z,2.60
2019-04-20T21:07:24.722Z,2.17
2019-04-20T21:09:56.168Z,2.57
2019-04-20T21:12:27.068Z,2.33
2019-04-20T21:15:00.400Z,2.53
2019-04-20T21:17:39.337Z,2.47
2019-04-20T21:20:15.649Z,2.50
2019-04-20T21:22:51.694Z,3.00
2019-04-20T21:25:16.949Z,2.80
2019-04-20T21:27:48.443Z,3.40
2019-04-20T21:30:30.839Z,3.03
2019-04-20T21:32:54.316Z,3.30
2019-04-20T21:35:23.857Z,3.00
2019-04-20T21:38:00.473Z,2.80
2019-04-20T21:40:33.968Z,2.87
2019-04-20T21:43:02.383Z,3.07
2019-04-20T21:45:33.870Z,2.67
2019-04-20T21:48:10.030Z,2.90
2019-04-20T21:50:53.509Z,3.37
2019-04-20T21:53:15.500Z,3.17
2019-04-20T21:55:37.751Z,4.05
2019-04-20T21:58:09.105Z,3.20
2019-04-20T22:00:48.305Z,3.33
2019-04-20T22:03:18.451Z,3.30
2019-04-20T22:05:50.321Z,3.17
2019-04-20T22:08:22.186Z,3.30
2019-04-20T22:10:53.473Z,3.20
2019-04-20T22:13:29.370Z,4.00
2019-04-20T22:16:01.981Z,3.53
2019-04-20T22:18:28.784Z,3.83
2019-04-20T22:21:11.186Z,4.00
2019-04-20T22:23:47.518Z,3.23
2019-04-20T22:26:12.025Z,2.70
2019-04-20T22:28:36.213Z,3.80
2019-04-20T22:31:06.611Z,3.23
2019-04-20T22:33:41.226Z,3.20
2019-04-20T22:36:11.391Z,3.47
2019-04-20T22:39:02.896Z,3.92
2019-04-20T22:41:36.345Z,4.03
2019-04-20T22:44:12.404Z,3.90
2019-04-20T22:46:41.894Z,3.93
2019-04-20T22:49:28.185Z,3.70
2019-04-20T22:51:53.195Z,3.93
2019-04-20T22:54:33.732Z,3.70
2019-04-20T22:56:57.326Z,4.30
2019-04-20T22:59:23.380Z,3.80
2019-04-20T23:01:55.227Z,4.20
2019-04-20T23:04:22.859Z,4.33
2019-04-20T23:06:54.118Z,5.37
2019-04-20T23:09:25.152Z,3.90
2019-04-20T23:12:06.028Z,4.17
2019-04-20T23:14:28.680Z,4.10
2019-04-20T23:16:59.781Z,4.40
2019-04-20T23:19:38.258Z,4.20
2019-04-20T23:22:05.258Z,5.80
2019-04-20T23:24:35.226Z,4.37
2019-04-20T23:27:13.947Z,4.13
2019-04-20T23:29:40.071Z,4.72
2019-04-20T23:32:12.626Z,3.83
2019-04-20T23:34:44.657Z,4.40
2019-04-20T23:37:20.078Z,3.83
2019-04-20T23:39:48.938Z,4.97
2019-04-20T23:42:40.202Z,4.23
2019-04-20T23:45:11.564Z,4.80
2019-04-20T23:47:47.842Z,3.80
2019-04-20T23:50:38.223Z,4.23
2019-04-20T23:53:06.739Z,8.34
2019-04-20T23:55:21.371Z,4.37
2019-04-20T23:57:57.916Z,6.03
